createdAt,value
2023-04-26T00:01:40.603Z,99.90
2023-04-26T00:06:43.923Z,99.90
2023-04-26T00:11:46.840Z,99.90
2023-04-26T00:16:52.153Z,99.90
2023-04-26T00:21:56.120Z,99.90
2023-04-26T00:27:15.460Z,99.90
2023-04-26T00:32:18.347Z,99.90
2023-04-26T00:37:23.425Z,99.90
2023-04-26T00:42:27.875Z,99.90
2023-04-26T00:47:32.839Z,99.90
2023-04-26T00:52:38.255Z,99.90
2023-04-26T00:57:46.030Z,99.90
2023-04-26T01:02:48.930Z,99.90
2023-04-26T01:07:52.626Z,99.90
2023-04-26T01:12:56.402Z,99.90
2023-04-26T01:18:01.815Z,99.90
2023-04-26T01:23:07.815Z,99.90
2023-04-26T01:28:10.648Z,99.90
2023-04-26T01:33:16.093Z,99.90
2023-04-26T01:38:22.675Z,99.90
2023-04-26T01:43:26.847Z,99.90
2023-04-26T01:48:29.761Z,99.90
2023-04-26T01:53:32.814Z,99.90
2023-04-26T01:58:37.038Z,99.90
2023-04-26T02:03:41.835Z,99.90
2023-04-26T02:08:47.310Z,99.90
2023-04-26T02:14:18.850Z,99.90
2023-04-26T02:19:21.682Z,99.90
2023-04-26T02:24:28.446Z,99.90
2023-04-26T02:29:43.737Z,99.90
2023-04-26T02:34:48.048Z,99.90
2023-04-26T02:39:53.969Z,99.90
2023-04-26T02:44:58.055Z,99.90
2023-04-26T02:50:17.134Z,99.90
2023-04-26T03:01:06.710Z,99.90
2023-04-26T03:06:21.617Z,99.90
2023-04-26T03:11:35.630Z,99.90
2023-04-26T03:16:43.721Z,99.90
2023-04-26T03:27:09.203Z,99.90
2023-04-26T03:37:23.876Z,99.90
2023-04-26T03:42:40.320Z,99.90
2023-04-26T03:47:44.395Z,99.90
2023-04-26T03:52:47.340Z,99.90
2023-04-26T04:02:55.715Z,99.90
2023-04-26T04:08:01.593Z,99.90
2023-04-26T04:13:04.463Z,99.90
2023-04-26T04:18:07.232Z,99.90
2023-04-26T04:23:11.008Z,99.90
2023-04-26T04:28:15.616Z,99.90
2023-04-26T04:33:20.319Z,99.90
2023-04-26T04:38:23.479Z,99.90
2023-04-26T04:43:28.051Z,99.90
2023-04-26T04:48:30.862Z,99.90
2023-04-26T04:53:35.980Z,99.90
2023-04-26T04:58:38.640Z,99.90
2023-04-26T05:03:42.381Z,99.90
2023-04-26T05:08:45.501Z,98.30
2023-04-26T05:13:52.281Z,96.60
2023-04-26T05:18:56.276Z,96.00
2023-04-26T05:23:58.932Z,93.90
2023-04-26T05:29:02.467Z,94.20
2023-04-26T05:34:17.200Z,94.50
2023-04-26T05:39:24.975Z,91.70
2023-04-26T05:44:30.472Z,92.30
2023-04-26T05:49:33.414Z,99.90
2023-04-26T05:54:36.304Z,99.90
2023-04-26T05:59:39.032Z,99.90
2023-04-26T06:04:42.245Z,99.90
2023-04-26T06:09:49.334Z,99.90
2023-04-26T06:14:51.933Z,99.90
2023-04-26T06:19:57.851Z,99.90
2023-04-26T06:25:00.657Z,99.90
2023-04-26T06:30:03.798Z,99.90
2023-04-26T06:35:09.172Z,99.90
2023-04-26T06:40:14.158Z,99.90
2023-04-26T06:45:19.320Z,99.90
2023-04-26T06:50:22.474Z,99.90
2023-04-26T06:55:25.407Z,99.90
2023-04-26T07:00:28.399Z,99.90
2023-04-26T07:05:31.532Z,99.90
2023-04-26T07:10:34.461Z,99.90
2023-04-26T07:15:38.513Z,99.90
2023-04-26T07:25:44.094Z,99.90
2023-04-26T07:30:46.816Z,99.90
2023-04-26T07:35:59.776Z,99.90
2023-04-26T07:41:04.758Z,99.00
2023-04-26T07:46:09.493Z,96.00
2023-04-26T07:51:12.917Z,95.10
2023-04-26T07:56:15.607Z,97.10
2023-04-26T08:01:20.300Z,96.80
2023-04-26T08:06:23.106Z,96.70
2023-04-26T08:11:25.783Z,92.80
2023-04-26T08:16:28.492Z,93.60
2023-04-26T08:21:31.832Z,93.80
2023-04-26T08:26:34.503Z,91.50
2023-04-26T08:31:37.162Z,88.70
2023-04-26T08:36:41.846Z,87.30
2023-04-26T08:41:49.816Z,87.60
2023-04-26T08:47:21.826Z,80.70
2023-04-26T08:52:27.543Z,86.10
2023-04-26T08:57:33.299Z,86.80
2023-04-26T09:02:37.091Z,85.80
2023-04-26T09:07:45.911Z,89.80
2023-04-26T09:12:55.666Z,90.30
2023-04-26T09:18:19.929Z,87.20
2023-04-26T09:23:22.598Z,89.00
2023-04-26T09:28:26.325Z,84.00
2023-04-26T09:33:29.119Z,81.00
2023-04-26T09:38:42.979Z,79.70
2023-04-26T09:43:45.822Z,81.30
2023-04-26T09:49:01.106Z,81.10
2023-04-26T09:54:03.692Z,75.00
2023-04-26T09:59:09.023Z,75.90
2023-04-26T10:04:11.757Z,74.30
2023-04-26T10:09:16.057Z,74.10
2023-04-26T10:14:18.675Z,70.30
2023-04-26T10:19:22.877Z,73.10
2023-04-26T10:24:26.576Z,77.90
2023-04-26T10:29:53.596Z,74.60
2023-04-26T10:35:13.432Z,74.40
2023-04-26T10:40:27.531Z,71.50
2023-04-26T10:45:30.438Z,66.80
2023-04-26T10:50:33.013Z,68.70
2023-04-26T10:55:42.964Z,71.50
2023-04-26T11:01:08.565Z,74.60
2023-04-26T11:06:15.429Z,75.20
2023-04-26T11:11:22.360Z,76.70
2023-04-26T11:16:29.445Z,76.70
2023-04-26T11:21:32.802Z,70.70
2023-04-26T11:26:36.682Z,76.60
2023-04-26T11:31:39.360Z,74.30
2023-04-26T11:36:42.258Z,75.80
2023-04-26T11:41:44.939Z,75.40
2023-04-26T11:46:49.767Z,76.20
2023-04-26T11:52:00.759Z,75.30
2023-04-26T11:57:18.365Z,74.50
2023-04-26T12:02:24.672Z,74.80
2023-04-26T12:07:32.474Z,75.80
2023-04-26T12:12:35.064Z,76.40
2023-04-26T12:17:37.816Z,74.60
2023-04-26T12:22:40.597Z,74.20
2023-04-26T12:27:43.127Z,71.60
2023-04-26T12:32:46.138Z,68.30
2023-04-26T12:37:49.957Z,65.80
2023-04-26T12:42:53.514Z,66.90
2023-04-26T12:47:56.486Z,70.20
2023-04-26T12:52:59.305Z,69.60
2023-04-26T12:58:01.987Z,71.30
2023-04-26T13:03:04.906Z,73.70
2023-04-26T13:08:07.787Z,72.70
2023-04-26T13:13:10.621Z,70.70
2023-04-26T13:18:15.888Z,69.80
2023-04-26T13:23:18.993Z,71.00
2023-04-26T13:28:21.854Z,71.20
2023-04-26T13:33:26.060Z,73.80
2023-04-26T13:38:29.438Z,78.00
2023-04-26T13:43:34.708Z,77.90
2023-04-26T13:48:37.256Z,79.30
2023-04-26T13:53:39.959Z,73.70
2023-04-26T13:58:44.310Z,76.50
2023-04-26T14:03:46.980Z,77.60
2023-04-26T14:08:49.782Z,76.20
2023-04-26T14:13:56.160Z,69.80
2023-04-26T14:18:58.930Z,69.40
2023-04-26T14:24:01.553Z,71.70
2023-04-26T14:29:05.314Z,73.20
2023-04-26T14:34:07.953Z,74.70
2023-04-26T14:39:10.510Z,76.10
2023-04-26T14:44:13.206Z,78.00
2023-04-26T14:49:16.150Z,78.20
2023-04-26T14:54:18.670Z,76.30
2023-04-26T14:59:21.936Z,77.00
2023-04-26T15:04:24.798Z,72.60
2023-04-26T15:09:29.810Z,73.20
2023-04-26T15:14:33.470Z,73.00
2023-04-26T15:19:36.501Z,73.70
2023-04-26T15:24:39.692Z,74.20
2023-04-26T15:29:42.310Z,74.70
2023-04-26T15:34:46.083Z,77.30
2023-04-26T15:39:48.569Z,78.60
2023-04-26T15:44:51.261Z,76.40
2023-04-26T15:49:55.049Z,77.20
2023-04-26T15:54:57.698Z,76.30
2023-04-26T16:00:00.886Z,76.50
2023-04-26T16:05:04.530Z,76.10
2023-04-26T16:10:10.465Z,76.50
2023-04-26T16:15:13.168Z,77.50
2023-04-26T16:25:19.090Z,76.30
2023-04-26T16:30:21.644Z,75.60
2023-04-26T16:35:24.492Z,77.90
2023-04-26T16:40:27.461Z,80.40
2023-04-26T16:45:30.053Z,77.40
2023-04-26T16:50:32.663Z,78.40
2023-04-26T16:55:35.254Z,81.10
2023-04-26T17:00:37.818Z,81.50
2023-04-26T17:05:43.070Z,81.60
2023-04-26T17:10:46.958Z,81.20
2023-04-26T17:15:49.611Z,81.30
2023-04-26T17:20:53.810Z,82.40
2023-04-26T17:25:56.597Z,84.90
2023-04-26T17:30:59.437Z,85.70
2023-04-26T17:36:04.392Z,87.20
2023-04-26T17:41:07.100Z,89.70
2023-04-26T17:46:12.037Z,91.90
2023-04-26T17:51:14.787Z,93.50
2023-04-26T17:56:17.681Z,93.80
2023-04-26T18:01:21.282Z,95.20
2023-04-26T18:06:24.072Z,95.80
2023-04-26T18:11:27.132Z,96.10
2023-04-26T18:16:29.766Z,97.90
2023-04-26T18:21:32.708Z,99.10
2023-04-26T18:26:35.543Z,99.90
2023-04-26T18:31:38.270Z,99.90
2023-04-26T18:41:44.371Z,99.90
2023-04-26T18:56:54.347Z,99.90
2023-04-26T19:01:57.467Z,99.90
2023-04-26T19:07:01.756Z,99.90
2023-04-26T19:12:06.256Z,99.90
2023-04-26T19:17:09.059Z,99.90
2023-04-26T19:22:12.109Z,99.90
2023-04-26T19:27:14.887Z,99.90
2023-04-26T19:32:19.910Z,99.90
2023-04-26T19:37:22.775Z,99.90
2023-04-26T19:42:28.275Z,99.90
2023-04-26T19:47:33.925Z,99.90
2023-04-26T19:52:40.724Z,99.90
2023-04-26T19:57:48.471Z,99.90
2023-04-26T20:02:52.144Z,99.90
2023-04-26T20:07:55.349Z,99.90
2023-04-26T20:12:59.465Z,99.90
2023-04-26T20:18:03.539Z,99.90
2023-04-26T20:23:07.937Z,99.90
2023-04-26T20:28:15.796Z,99.90
2023-04-26T20:33:19.054Z,99.90
2023-04-26T20:38:22.205Z,99.90
2023-04-26T20:43:26.010Z,99.90
2023-04-26T20:48:29.111Z,99.90
2023-04-26T20:53:32.239Z,99.90
2023-04-26T20:58:35.037Z,99.90
2023-04-26T21:03:41.528Z,99.90
2023-04-26T21:08:46.831Z,99.90
2023-04-26T21:13:50.681Z,99.90
2023-04-26T21:18:53.727Z,99.90
2023-04-26T21:23:56.723Z,99.90
2023-04-26T21:34:03.231Z,99.90
2023-04-26T21:39:13.058Z,99.90
2023-04-26T21:44:48.530Z,99.90
2023-04-26T21:56:01.360Z,99.90
2023-04-26T22:01:11.658Z,99.90
2023-04-26T22:06:16.799Z,99.90
2023-04-26T22:26:29.462Z,99.90
2023-04-26T22:31:32.186Z,99.90
2023-04-26T22:36:35.513Z,99.90
2023-04-26T22:41:38.178Z,99.90
2023-04-26T22:46:41.062Z,99.90
2023-04-26T22:51:50.570Z,99.90
2023-04-26T23:02:04.060Z,99.90
2023-04-26T23:07:06.713Z,99.90
2023-04-26T23:12:09.792Z,99.90
2023-04-26T23:17:13.984Z,99.90
2023-04-26T23:22:16.583Z,99.90
2023-04-26T23:27:20.907Z,99.90
2023-04-26T23:32:23.693Z,99.90
2023-04-26T23:52:35.478Z,99.90
